Time;durP1;ratioP1;P1;durP2;ratioP2;P2;SDS_P1;SDS_P2;PMS_P1;PMS_P2;Temp;Humidity;BMP_temperature;BMP_pressure;BME280_temperature;BME280_humidity;BME280_pressure;Samples;Min_cycle;Max_cycle;Signal;HPM_P1;HPM_P2
2023/05/13 00:00:09;;;;;;;7.35;4.43;;;11.30;81.50;;;;;;5047384;28;20025;-76
2023/05/13 00:02:35;;;;;;;9.10;4.80;;;11.30;81.70;;;;;;5048455;28;20036;-76
2023/05/13 00:05:00;;;;;;;11.00;4.90;;;11.20;81.80;;;;;;5043264;28;20405;-76
2023/05/13 00:07:25;;;;;;;9.70;4.97;;;11.10;81.60;;;;;;5043643;28;20085;-76
2023/05/13 00:09:51;;;;;;;14.27;4.90;;;11.10;81.60;;;;;;5043125;28;20041;-75
2023/05/13 00:12:16;;;;;;;8.02;4.88;;;11.10;81.60;;;;;;5046797;28;20464;-76
2023/05/13 00:14:42;;;;;;;9.63;4.57;;;11.00;82.20;;;;;;5044160;28;20032;-75
2023/05/13 00:17:07;;;;;;;6.50;4.32;;;11.00;82.30;;;;;;5041691;28;20494;-75
2023/05/13 00:19:33;;;;;;;8.48;5.05;;;10.90;82.40;;;;;;5043299;28;20025;-75
2023/05/13 00:21:58;;;;;;;9.65;4.18;;;10.80;82.80;;;;;;5046005;28;20044;-75
2023/05/13 00:24:24;;;;;;;8.18;4.55;;;10.80;82.60;;;;;;5047548;28;20049;-76
2023/05/13 00:26:49;;;;;;;8.68;4.72;;;10.70;82.70;;;;;;5044716;28;20033;-76
2023/05/13 00:29:15;;;;;;;7.38;5.10;;;10.70;83.10;;;;;;5047752;28;20486;-76
2023/05/13 00:31:40;;;;;;;9.18;4.70;;;10.60;83.30;;;;;;5044874;28;20119;-76
2023/05/13 00:34:06;;;;;;;9.07;5.65;;;10.60;83.70;;;;;;5037402;28;20497;-76
2023/05/13 00:36:31;;;;;;;9.80;5.00;;;10.50;83.90;;;;;;5042841;28;20021;-76
2023/05/13 00:38:57;;;;;;;7.55;5.03;;;10.50;83.70;;;;;;5043344;28;20030;-76
2023/05/13 00:41:22;;;;;;;9.68;5.53;;;10.40;84.30;;;;;;5049289;28;20048;-76
2023/05/13 00:43:48;;;;;;;11.93;5.55;;;10.30;84.60;;;;;;5055631;28;20037;-75
2023/05/13 00:46:14;;;;;;;11.00;5.65;;;10.30;84.70;;;;;;5054270;28;20033;-75
2023/05/13 00:48:40;;;;;;;8.65;5.32;;;10.20;84.80;;;;;;5049363;28;20377;-76
2023/05/13 00:51:06;;;;;;;10.00;5.55;;;10.10;84.70;;;;;;5049731;28;20040;-76
2023/05/13 00:53:32;;;;;;;8.40;5.95;;;10.10;84.90;;;;;;5054546;28;20150;-76
2023/05/13 00:55:58;;;;;;;9.48;6.00;;;10.00;85.20;;;;;;5057791;28;20032;-76
2023/05/13 00:58:24;;;;;;;10.48;5.70;;;9.90;85.60;;;;;;5049815;28;20462;-75
2023/05/13 01:01:31;;;;;;;11.95;5.65;;;10.00;85.50;;;;;;5048681;28;20037;-76
2023/05/13 01:04:09;;;;;;;10.25;5.70;;;9.90;85.70;;;;;;5042259;28;20037;-75
2023/05/13 01:06:49;;;;;;;9.15;5.72;;;9.80;85.90;;;;;;5047977;28;20033;-75
2023/05/13 01:09:19;;;;;;;10.13;5.80;;;9.80;85.80;;;;;;5050760;28;20044;-75
2023/05/13 01:11:48;;;;;;;9.45;5.63;;;9.80;85.60;;;;;;5050371;28;20470;-75
2023/05/13 01:14:24;;;;;;;8.98;5.47;;;9.80;86.00;;;;;;5044231;28;20131;-76
2023/05/13 01:16:57;;;;;;;12.43;6.88;;;9.70;86.10;;;;;;5047950;28;20501;-76
2023/05/13 01:19:41;;;;;;;9.98;5.78;;;9.70;85.90;;;;;;5043995;28;20071;-76
2023/05/13 01:22:06;;;;;;;9.82;5.63;;;9.60;86.10;;;;;;5048907;28;20031;-75
2023/05/13 01:24:32;;;;;;;13.68;5.50;;;9.70;85.90;;;;;;5063851;28;20449;-76
2023/05/13 01:26:58;;;;;;;11.00;5.75;;;9.60;85.90;;;;;;5049457;28;20037;-76
2023/05/13 01:29:24;;;;;;;10.60;6.05;;;9.60;85.80;;;;;;5047711;28;20372;-76
2023/05/13 01:31:50;;;;;;;7.65;5.72;;;9.60;85.90;;;;;;5045569;28;20032;-75
2023/05/13 01:34:18;;;;;;;7.63;5.82;;;9.50;86.20;;;;;;5046114;28;20036;-76
2023/05/13 01:36:43;;;;;;;11.38;6.35;;;9.50;86.40;;;;;;5054839;28;20111;-75
2023/05/13 01:39:10;;;;;;;9.43;5.70;;;9.50;86.20;;;;;;5053216;28;20108;-76
2023/05/13 01:41:36;;;;;;;11.57;6.32;;;9.40;86.80;;;;;;5057785;28;20117;-76
2023/05/13 01:44:01;;;;;;;7.80;5.80;;;9.40;86.80;;;;;;5056630;28;20506;-75
2023/05/13 01:46:27;;;;;;;8.98;6.00;;;9.40;86.50;;;;;;5046928;28;20029;-75
2023/05/13 01:48:52;;;;;;;10.38;6.03;;;9.30;86.50;;;;;;5051165;28;20032;-75
2023/05/13 01:51:18;;;;;;;9.45;5.90;;;9.30;86.90;;;;;;5065306;28;20024;-76
2023/05/13 01:53:43;;;;;;;13.13;6.72;;;9.20;86.90;;;;;;5051422;28;20120;-75
2023/05/13 01:56:12;;;;;;;8.85;5.85;;;9.20;86.90;;;;;;5049836;28;20087;-75
2023/05/13 01:58:37;;;;;;;11.30;6.65;;;9.20;87.30;;;;;;5048713;28;20029;-75
2023/05/13 02:01:03;;;;;;;10.32;6.15;;;9.10;87.20;;;;;;5045524;28;20025;-75
2023/05/13 02:03:28;;;;;;;9.95;6.15;;;9.10;87.20;;;;;;5051095;28;20086;-75
2023/05/13 02:05:54;;;;;;;11.75;6.88;;;9.10;87.10;;;;;;5039476;28;20370;-75
2023/05/13 02:08:22;;;;;;;9.15;6.65;;;9.10;87.30;;;;;;5051083;28;20032;-75
2023/05/13 02:10:57;;;;;;;8.25;6.30;;;9.10;87.40;;;;;;5053117;28;20020;-75
2023/05/13 02:13:23;;;;;;;9.20;6.22;;;9.00;87.50;;;;;;5050476;28;20032;-75
2023/05/13 02:15:49;;;;;;;8.95;6.45;;;9.00;87.30;;;;;;5044882;28;20079;-75
2023/05/13 02:18:14;;;;;;;13.18;6.82;;;9.00;87.30;;;;;;5040278;28;20024;-75
2023/05/13 02:20:40;;;;;;;13.77;7.18;;;9.00;87.50;;;;;;5050428;28;20037;-75
2023/05/13 02:23:06;;;;;;;10.52;6.38;;;8.90;87.30;;;;;;5053799;28;20059;-75
2023/05/13 02:25:32;;;;;;;10.40;7.20;;;8.90;87.30;;;;;;5061792;28;20053;-75
2023/05/13 02:27:58;;;;;;;10.45;6.65;;;8.80;87.70;;;;;;5052664;28;20078;-75
2023/05/13 02:30:25;;;;;;;13.90;6.90;;;8.90;87.70;;;;;;5048656;28;20029;-75
2023/05/13 02:32:55;;;;;;;10.07;6.70;;;8.80;87.80;;;;;;5044015;28;20063;-75
2023/05/13 02:35:21;;;;;;;9.68;6.63;;;8.80;87.90;;;;;;5050600;28;20024;-75
2023/05/13 02:37:47;;;;;;;11.63;6.93;;;8.70;87.70;;;;;;5050090;28;20029;-75
2023/05/13 02:40:13;;;;;;;9.93;6.80;;;8.70;87.90;;;;;;5049742;28;20117;-75
2023/05/13 02:42:38;;;;;;;10.90;6.63;;;8.60;87.90;;;;;;5052301;28;20449;-75
2023/05/13 02:45:04;;;;;;;8.65;6.60;;;8.60;88.00;;;;;;5055712;28;20079;-75
2023/05/13 02:47:30;;;;;;;8.18;6.20;;;8.60;88.20;;;;;;5052747;28;20091;-75
2023/05/13 02:49:55;;;;;;;11.77;6.45;;;8.50;88.30;;;;;;5045814;28;20025;-75
2023/05/13 02:52:21;;;;;;;13.68;6.90;;;8.50;88.50;;;;;;5048108;28;20104;-75
2023/05/13 02:54:46;;;;;;;11.32;6.80;;;8.40;88.50;;;;;;5049446;28;20171;-75
2023/05/13 02:57:12;;;;;;;12.35;7.15;;;8.40;88.70;;;;;;5050956;28;20025;-75
2023/05/13 02:59:37;;;;;;;10.90;6.20;;;8.40;88.70;;;;;;5045359;28;20025;-75
2023/05/13 03:02:03;;;;;;;9.07;6.35;;;8.30;88.90;;;;;;5043652;28;20348;-75
2023/05/13 03:04:28;;;;;;;11.98;7.20;;;8.30;89.10;;;;;;5045904;28;20067;-75
2023/05/13 03:06:54;;;;;;;9.85;7.10;;;8.30;89.20;;;;;;5046597;28;22501;-75
2023/05/13 03:09:19;;;;;;;20.15;7.13;;;8.20;89.10;;;;;;5047356;28;20032;-75
2023/05/13 03:11:45;;;;;;;11.73;7.43;;;8.20;89.10;;;;;;5045776;28;20052;-75
2023/05/13 03:14:10;;;;;;;11.98;7.38;;;8.20;89.50;;;;;;5047035;28;20481;-74
2023/05/13 03:16:36;;;;;;;10.82;7.70;;;8.20;89.40;;;;;;5045529;28;21230;-75
2023/05/13 03:19:01;;;;;;;11.02;7.45;;;8.10;89.50;;;;;;5041907;28;20449;-77
2023/05/13 03:21:27;;;;;;;12.90;7.72;;;8.10;89.80;;;;;;5040995;28;20054;-78
2023/05/13 03:23:52;;;;;;;11.65;7.65;;;8.10;89.70;;;;;;5038877;28;20043;-78
2023/05/13 03:26:18;;;;;;;10.45;7.38;;;8.10;89.80;;;;;;5042108;28;20019;-77
2023/05/13 03:28:45;;;;;;;15.13;7.85;;;8.10;89.90;;;;;;5049240;28;20476;-78
2023/05/13 03:31:12;;;;;;;10.30;7.82;;;8.10;89.90;;;;;;5046877;28;20497;-77
2023/05/13 03:33:37;;;;;;;10.55;7.45;;;8.10;90.00;;;;;;5032519;28;20033;-78
2023/05/13 03:36:03;;;;;;;10.02;7.88;;;8.10;89.90;;;;;;5042784;28;20036;-78
2023/05/13 03:38:29;;;;;;;9.48;7.55;;;8.10;90.10;;;;;;5053137;28;20409;-78
2023/05/13 03:40:54;;;;;;;13.00;8.30;;;8.10;90.00;;;;;;5048697;28;20025;-78
2023/05/13 03:43:20;;;;;;;13.35;7.75;;;8.20;89.90;;;;;;5042044;28;20063;-77
2023/05/13 03:45:47;;;;;;;11.57;8.18;;;8.20;89.80;;;;;;5042992;28;20108;-77
2023/05/13 03:48:13;;;;;;;12.43;7.90;;;8.10;89.90;;;;;;5038880;28;20429;-77
2023/05/13 03:50:39;;;;;;;14.70;7.22;;;8.20;90.00;;;;;;5038272;28;20029;-77
2023/05/13 03:53:04;;;;;;;15.80;8.48;;;8.10;90.10;;;;;;5047293;28;20398;-77
2023/05/13 03:55:30;;;;;;;13.15;8.07;;;8.20;90.30;;;;;;5046319;28;20025;-77
2023/05/13 03:57:55;;;;;;;10.38;7.70;;;8.10;90.10;;;;;;5049491;28;20028;-75
2023/05/13 04:00:21;;;;;;;13.90;8.30;;;8.10;90.10;;;;;;5046406;28;20156;-74
2023/05/13 04:02:46;;;;;;;13.27;7.93;;;8.20;90.20;;;;;;5042844;28;20372;-74
2023/05/13 04:05:12;;;;;;;11.02;7.75;;;8.20;90.30;;;;;;5033798;28;20510;-75
2023/05/13 04:07:39;;;;;;;13.25;8.05;;;8.20;90.10;;;;;;5031032;28;20372;-75
2023/05/13 04:10:05;;;;;;;12.30;8.25;;;8.20;90.00;;;;;;5038971;28;20023;-76
2023/05/13 04:12:32;;;;;;;14.35;8.07;;;8.30;90.20;;;;;;5040575;28;20025;-76
2023/05/13 04:14:57;;;;;;;11.88;7.53;;;8.30;90.20;;;;;;5054369;28;20025;-76
2023/05/13 04:17:23;;;;;;;11.90;8.00;;;8.40;90.30;;;;;;5053597;28;20408;-76
2023/05/13 04:19:52;;;;;;;11.68;8.15;;;8.50;90.00;;;;;;5045635;28;20041;-76
2023/05/13 04:22:17;;;;;;;14.98;8.02;;;8.50;90.10;;;;;;5043781;28;20029;-76
2023/05/13 04:24:43;;;;;;;15.90;8.80;;;8.60;89.90;;;;;;5053845;28;20131;-76
2023/05/13 04:27:08;;;;;;;11.02;7.78;;;8.70;89.70;;;;;;5052729;28;20326;-76
2023/05/13 04:29:34;;;;;;;11.02;8.27;;;8.80;89.60;;;;;;5053982;28;20525;-74
2023/05/13 04:31:59;;;;;;;13.07;8.00;;;8.90;89.30;;;;;;5049220;28;20059;-73
2023/05/13 04:34:25;;;;;;;12.82;7.68;;;9.00;89.10;;;;;;5036287;28;20032;-73
2023/05/13 04:36:50;;;;;;;16.45;8.20;;;9.10;89.00;;;;;;5053716;28;20017;-73
2023/05/13 04:39:15;;;;;;;13.75;7.45;;;9.10;88.80;;;;;;5054398;28;20033;-73
2023/05/13 04:41:41;;;;;;;10.70;7.30;;;9.10;89.00;;;;;;5051918;28;20520;-73
2023/05/13 04:44:06;;;;;;;12.30;8.02;;;9.10;88.80;;;;;;5065636;28;20028;-74
2023/05/13 04:46:32;;;;;;;12.18;7.10;;;9.20;88.90;;;;;;5051961;28;20151;-73
2023/05/13 04:48:57;;;;;;;12.23;7.25;;;9.30;89.10;;;;;;5051889;28;20381;-73
2023/05/13 04:51:23;;;;;;;13.70;7.65;;;9.30;88.80;;;;;;5051801;28;20033;-73
2023/05/13 04:53:48;;;;;;;11.52;7.13;;;9.30;88.70;;;;;;5053918;28;20112;-73
2023/05/13 04:56:15;;;;;;;13.40;7.72;;;9.40;88.80;;;;;;5052922;28;20112;-73
2023/05/13 04:58:40;;;;;;;12.10;7.57;;;9.50;88.70;;;;;;5053254;28;20021;-73
2023/05/13 05:01:06;;;;;;;13.68;7.65;;;9.50;89.00;;;;;;5050801;28;20078;-73
2023/05/13 05:03:31;;;;;;;10.82;7.55;;;9.60;88.70;;;;;;5051735;28;20036;-73
2023/05/13 05:05:57;;;;;;;11.13;7.53;;;9.60;89.10;;;;;;5037578;28;20343;-74
2023/05/13 05:08:23;;;;;;;11.27;6.93;;;9.70;88.80;;;;;;5049179;28;20029;-73
2023/05/13 05:10:48;;;;;;;13.93;7.63;;;9.80;88.20;;;;;;5051735;28;20025;-73
2023/05/13 05:13:14;;;;;;;16.77;7.43;;;9.90;87.90;;;;;;5053327;28;20232;-73
2023/05/13 05:15:40;;;;;;;11.27;7.38;;;10.00;87.80;;;;;;5053813;28;20021;-73
2023/05/13 05:18:06;;;;;;;9.80;6.55;;;10.00;87.30;;;;;;5053429;28;20489;-74
2023/05/13 05:20:31;;;;;;;18.35;7.30;;;10.10;87.40;;;;;;5049959;28;20108;-73
2023/05/13 05:22:57;;;;;;;11.93;6.68;;;10.20;87.20;;;;;;5038517;28;20052;-73
2023/05/13 05:25:23;;;;;;;9.85;6.80;;;10.40;86.50;;;;;;5053906;28;20072;-74
2023/05/13 05:27:49;;;;;;;10.77;6.15;;;10.50;85.70;;;;;;5045971;28;20041;-73
2023/05/13 05:30:14;;;;;;;13.10;6.40;;;10.60;85.60;;;;;;5052288;28;20039;-74
2023/05/13 05:32:40;;;;;;;9.90;6.25;;;10.70;85.60;;;;;;5046302;28;20029;-73
2023/05/13 05:35:06;;;;;;;8.98;6.40;;;10.80;86.00;;;;;;5047062;28;20040;-74
2023/05/13 05:37:32;;;;;;;10.52;6.40;;;10.90;86.00;;;;;;5068318;28;20044;-74
2023/05/13 05:39:57;;;;;;;14.40;5.72;;;11.00;85.20;;;;;;5061044;28;20450;-74
2023/05/13 05:42:23;;;;;;;13.57;6.18;;;11.10;84.70;;;;;;5053558;28;20398;-74
2023/05/13 05:44:48;;;;;;;12.10;6.65;;;11.30;84.50;;;;;;5062608;28;20029;-73
2023/05/13 05:47:14;;;;;;;11.48;6.47;;;11.30;84.40;;;;;;5052667;28;20032;-73
2023/05/13 05:49:39;;;;;;;10.60;5.63;;;11.50;83.70;;;;;;5058405;28;20369;-74
2023/05/13 05:52:05;;;;;;;12.90;6.22;;;11.70;83.30;;;;;;5062740;28;20044;-74
2023/05/13 05:54:31;;;;;;;9.55;5.18;;;11.90;83.10;;;;;;5053300;28;20029;-74
2023/05/13 05:56:56;;;;;;;11.52;6.40;;;12.00;83.20;;;;;;5050864;28;20075;-73
2023/05/13 05:59:22;;;;;;;10.43;5.25;;;12.10;81.80;;;;;;5052023;28;20082;-73
2023/05/13 06:01:47;;;;;;;9.55;5.38;;;12.30;81.90;;;;;;5050516;28;20404;-75
2023/05/13 06:04:13;;;;;;;10.77;5.20;;;12.50;81.20;;;;;;5057165;28;20062;-74
2023/05/13 06:06:39;;;;;;;9.88;4.88;;;12.60;80.60;;;;;;5041640;28;20029;-74
2023/05/13 06:09:05;;;;;;;10.20;4.78;;;12.70;80.80;;;;;;5045673;28;20372;-73
2023/05/13 06:11:30;;;;;;;8.80;4.85;;;12.90;80.20;;;;;;5049562;28;20021;-73
2023/05/13 06:13:56;;;;;;;9.13;4.60;;;13.00;79.10;;;;;;5051748;28;20028;-74
2023/05/13 06:16:22;;;;;;;8.23;4.38;;;13.30;79.60;;;;;;5052960;28;20075;-74
2023/05/13 06:18:48;;;;;;;10.65;4.65;;;13.40;78.40;;;;;;5061016;28;20033;-74
2023/05/13 06:21:13;;;;;;;8.68;4.95;;;13.60;78.10;;;;;;5056705;28;20036;-73
2023/05/13 06:23:39;;;;;;;9.65;4.10;;;13.80;77.30;;;;;;5065170;28;20035;-74
2023/05/13 06:26:04;;;;;;;7.20;3.85;;;13.90;75.90;;;;;;5051566;28;20028;-74
2023/05/13 06:28:30;;;;;;;7.15;4.13;;;14.00;75.70;;;;;;5051361;28;20032;-74
2023/05/13 06:30:56;;;;;;;7.70;4.13;;;14.30;74.20;;;;;;5051045;28;20056;-74
2023/05/13 06:33:21;;;;;;;6.60;4.00;;;14.50;74.00;;;;;;5046712;28;20017;-74
2023/05/13 06:35:48;;;;;;;10.07;4.13;;;14.60;74.20;;;;;;5049729;28;20056;-73
2023/05/13 06:38:16;;;;;;;7.00;3.80;;;14.70;72.10;;;;;;5063802;28;20035;-73
2023/05/13 06:40:43;;;;;;;8.63;3.65;;;14.90;71.80;;;;;;5054318;28;20128;-74
2023/05/13 06:43:08;;;;;;;15.30;4.20;;;15.00;72.30;;;;;;5055794;28;20396;-74
2023/05/13 06:45:34;;;;;;;6.53;3.85;;;15.50;72.10;;;;;;5064950;28;20020;-74
2023/05/13 06:47:59;;;;;;;8.05;3.85;;;15.60;71.70;;;;;;5068017;28;20054;-74
2023/05/13 06:50:25;;;;;;;8.57;4.22;;;15.80;70.30;;;;;;5060633;28;20021;-73
2023/05/13 06:52:50;;;;;;;8.45;4.10;;;16.30;69.70;;;;;;5055795;28;20086;-74
2023/05/13 06:55:17;;;;;;;10.18;3.92;;;16.10;68.70;;;;;;5060558;28;20335;-74
2023/05/13 06:57:46;;;;;;;8.77;3.65;;;16.30;68.50;;;;;;5059042;28;20016;-74
2023/05/13 07:00:15;;;;;;;9.15;3.70;;;16.50;69.80;;;;;;5069863;28;20027;-74
2023/05/13 07:02:41;;;;;;;9.55;3.55;;;16.60;68.70;;;;;;5059349;28;20060;-74
2023/05/13 07:05:07;;;;;;;6.75;3.40;;;16.80;65.60;;;;;;5055713;28;20160;-74
2023/05/13 07:07:33;;;;;;;8.48;3.40;;;16.90;65.30;;;;;;5068883;28;20042;-74
2023/05/13 07:09:59;;;;;;;7.45;3.13;;;17.40;66.50;;;;;;5047814;28;20136;-74
2023/05/13 07:12:24;;;;;;;7.82;3.20;;;17.30;63.00;;;;;;5056599;28;20040;-74
2023/05/13 07:14:49;;;;;;;6.82;3.72;;;17.60;64.70;;;;;;5057358;28;20059;-75
2023/05/13 07:17:16;;;;;;;11.73;3.50;;;17.60;64.10;;;;;;5063346;28;20458;-74
2023/05/13 07:19:41;;;;;;;6.38;3.33;;;18.00;63.80;;;;;;5061206;28;20086;-74
2023/05/13 07:22:07;;;;;;;9.35;3.20;;;18.10;63.40;;;;;;5061361;28;20028;-74
2023/05/13 07:24:32;;;;;;;7.47;3.13;;;18.30;63.30;;;;;;5067561;28;20422;-74
2023/05/13 07:26:58;;;;;;;8.32;3.50;;;18.40;62.60;;;;;;5058448;28;20157;-74
2023/05/13 07:29:24;;;;;;;6.40;3.22;;;18.50;59.90;;;;;;5066792;28;20457;-74
2023/05/13 07:31:49;;;;;;;5.15;3.22;;;18.60;59.90;;;;;;5056133;28;20032;-75
2023/05/13 07:34:15;;;;;;;8.88;3.20;;;18.70;57.60;;;;;;5042950;28;20031;-74
2023/05/13 07:36:40;;;;;;;9.13;3.70;;;19.00;60.30;;;;;;5061632;28;20025;-75
2023/05/13 07:39:07;;;;;;;11.85;4.25;;;18.90;58.90;;;;;;5050318;28;20461;-74
2023/05/13 07:41:33;;;;;;;6.63;3.42;;;19.00;56.00;;;;;;5057889;28;20079;-74
2023/05/13 07:43:58;;;;;;;8.55;3.90;;;19.20;56.90;;;;;;5039845;28;20029;-74
2023/05/13 07:46:25;;;;;;;9.93;3.35;;;19.30;54.30;;;;;;5030345;28;20030;-75
2023/05/13 07:48:50;;;;;;;9.82;3.35;;;19.40;54.80;;;;;;5042963;28;20033;-75
2023/05/13 07:51:17;;;;;;;14.43;4.47;;;19.60;55.40;;;;;;5042706;28;20040;-75
2023/05/13 07:53:44;;;;;;;8.00;3.00;;;19.70;52.30;;;;;;5046661;28;20017;-74
2023/05/13 07:56:09;;;;;;;6.95;3.20;;;19.90;53.30;;;;;;5038222;28;20112;-75
2023/05/13 07:58:36;;;;;;;10.18;3.40;;;20.10;53.90;;;;;;5049959;28;20159;-74
2023/05/13 08:01:02;;;;;;;8.02;3.42;;;20.20;54.80;;;;;;5048756;28;20033;-74
2023/05/13 08:03:28;;;;;;;9.27;3.28;;;20.20;55.10;;;;;;5037003;28;20450;-74
2023/05/13 08:05:53;;;;;;;6.90;3.20;;;20.00;54.00;;;;;;5035477;28;20032;-74
2023/05/13 08:08:19;;;;;;;8.45;3.05;;;20.20;53.30;;;;;;5045187;28;20515;-74
2023/05/13 08:10:44;;;;;;;5.95;3.45;;;20.60;55.80;;;;;;5048609;28;20029;-74
2023/05/13 08:13:10;;;;;;;8.38;3.67;;;20.60;54.40;;;;;;5046077;28;20025;-74
2023/05/13 08:15:36;;;;;;;7.00;3.22;;;21.00;54.50;;;;;;5050388;28;20048;-74
2023/05/13 08:18:02;;;;;;;7.65;3.40;;;21.10;52.20;;;;;;5041562;28;20476;-74
2023/05/13 08:20:28;;;;;;;6.45;3.58;;;21.30;53.90;;;;;;5049587;28;20025;-74
2023/05/13 08:22:55;;;;;;;7.93;3.45;;;21.30;53.10;;;;;;5035684;28;20022;-74
2023/05/13 08:25:21;;;;;;;18.90;4.57;;;21.30;51.50;;;;;;5050392;28;20049;-74
2023/05/13 08:27:46;;;;;;;9.45;3.28;;;21.50;50.70;;;;;;5048372;28;20039;-74
2023/05/13 08:30:12;;;;;;;9.90;3.88;;;21.60;52.30;;;;;;5048607;28;20063;-74
2023/05/13 08:32:38;;;;;;;6.22;3.05;;;21.60;49.60;;;;;;5041226;28;20020;-75
2023/05/13 08:35:04;;;;;;;6.78;3.13;;;21.50;50.70;;;;;;5042767;28;20033;-74
2023/05/13 08:37:29;;;;;;;9.77;3.20;;;21.70;51.00;;;;;;5048878;28;20096;-76
2023/05/13 08:39:55;;;;;;;4.97;2.70;;;21.90;50.20;;;;;;5055943;28;20036;-75
2023/05/13 08:42:22;;;;;;;20.70;4.22;;;22.20;48.10;;;;;;5052118;28;20104;-74
2023/05/13 08:44:48;;;;;;;5.38;2.90;;;22.30;50.50;;;;;;5050251;28;20017;-74
2023/05/13 08:47:25;;;;;;;6.45;3.40;;;22.30;47.80;;;;;;5063989;28;20117;-74
2023/05/13 08:49:50;;;;;;;6.07;2.80;;;22.50;47.70;;;;;;5055439;28;20020;-74
2023/05/13 08:52:18;;;;;;;5.22;2.75;;;22.30;48.40;;;;;;5050715;28;20025;-75
2023/05/13 08:54:45;;;;;;;8.77;2.70;;;22.60;47.90;;;;;;5061154;28;20028;-75
2023/05/13 08:57:10;;;;;;;7.80;2.70;;;22.50;47.50;;;;;;5055405;28;20024;-75
2023/05/13 08:59:36;;;;;;;10.55;3.15;;;22.50;46.40;;;;;;5061458;28;20037;-74
2023/05/13 09:02:03;;;;;;;10.32;3.03;;;22.70;47.60;;;;;;5050864;28;20480;-74
2023/05/13 09:04:29;;;;;;;7.50;3.15;;;23.10;47.60;;;;;;5048372;28;20041;-74
2023/05/13 09:06:55;;;;;;;6.75;2.85;;;23.00;45.90;;;;;;5047788;28;20017;-74
2023/05/13 09:09:21;;;;;;;8.95;3.08;;;23.40;47.80;;;;;;5054540;28;20058;-74
2023/05/13 09:11:47;;;;;;;11.90;3.50;;;23.30;45.10;;;;;;5050553;28;20066;-74
2023/05/13 09:14:17;;;;;;;7.60;2.40;;;23.30;47.60;;;;;;5053477;28;20363;-74
2023/05/13 09:16:42;;;;;;;5.68;2.75;;;23.40;44.90;;;;;;5053779;28;20457;-75
2023/05/13 09:19:10;;;;;;;35.72;4.85;;;23.20;41.50;;;;;;5050348;28;20033;-74
2023/05/13 09:21:35;;;;;;;15.73;3.75;;;23.50;44.10;;;;;;5047210;28;20044;-74
2023/05/13 09:24:12;;;;;;;5.40;2.90;;;23.50;42.90;;;;;;5052589;28;20032;-75
2023/05/13 09:26:38;;;;;;;6.72;2.33;;;23.40;42.10;;;;;;5052039;28;20024;-74
2023/05/13 09:29:18;;;;;;;11.23;2.67;;;23.50;43.30;;;;;;5052065;28;20065;-75
2023/05/13 09:31:47;;;;;;;5.30;2.60;;;23.60;44.80;;;;;;5039287;28;20032;-76
2023/05/13 09:34:13;;;;;;;8.95;2.83;;;24.00;44.20;;;;;;5036149;28;20040;-75
2023/05/13 09:36:40;;;;;;;5.50;2.58;;;24.20;44.80;;;;;;5052676;28;20362;-74
2023/05/13 09:39:05;;;;;;;7.97;2.35;;;24.00;41.90;;;;;;5052204;28;20086;-74
2023/05/13 09:41:32;;;;;;;6.38;2.58;;;23.50;42.80;;;;;;5050468;28;20025;-74
2023/05/13 09:44:01;;;;;;;3.95;2.20;;;23.40;43.50;;;;;;5063928;28;20031;-75
2023/05/13 09:46:27;;;;;;;5.47;2.65;;;23.90;44.70;;;;;;5064764;28;20025;-75
2023/05/13 09:48:57;;;;;;;14.63;3.65;;;23.90;41.80;;;;;;5051822;28;20033;-75
2023/05/13 09:51:26;;;;;;;8.50;3.10;;;23.60;43.20;;;;;;5050361;28;20017;-75
2023/05/13 09:53:53;;;;;;;6.30;2.60;;;24.00;41.40;;;;;;5053377;28;20067;-75
2023/05/13 09:56:22;;;;;;;38.28;4.32;;;24.20;42.90;;;;;;5061150;28;20071;-75
2023/05/13 09:58:51;;;;;;;7.63;2.58;;;24.60;42.20;;;;;;5068830;28;20052;-75
2023/05/13 10:01:18;;;;;;;7.55;2.70;;;24.90;44.30;;;;;;5054539;28;20017;-75
2023/05/13 10:03:44;;;;;;;5.35;2.65;;;24.70;42.90;;;;;;5065758;28;20119;-75
2023/05/13 10:06:10;;;;;;;6.95;2.75;;;24.50;42.40;;;;;;5037475;28;20366;-75
2023/05/13 10:08:37;;;;;;;7.32;3.10;;;24.60;42.30;;;;;;5056694;28;20025;-74
2023/05/13 10:11:04;;;;;;;9.05;3.33;;;24.00;42.40;;;;;;5055460;28;20454;-75
2023/05/13 10:13:31;;;;;;;6.45;2.95;;;23.70;40.40;;;;;;5056178;28;20036;-75
2023/05/13 10:15:57;;;;;;;5.70;3.60;;;23.50;44.00;;;;;;5057840;28;20055;-75
2023/05/13 10:18:23;;;;;;;7.78;2.67;;;24.00;43.30;;;;;;5063612;28;20029;-75
2023/05/13 10:20:51;;;;;;;12.63;4.03;;;24.00;43.40;;;;;;5049034;28;20029;-74
2023/05/13 10:23:18;;;;;;;11.27;3.70;;;24.10;40.90;;;;;;5039668;28;20521;-75
2023/05/13 10:25:45;;;;;;;6.95;2.97;;;23.70;41.30;;;;;;5064348;28;20056;-75
2023/05/13 10:28:12;;;;;;;8.30;3.03;;;24.20;40.00;;;;;;5039248;28;20142;-75
2023/05/13 10:30:38;;;;;;;7.18;2.47;;;23.90;41.30;;;;;;5054582;28;20378;-75
2023/05/13 10:33:03;;;;;;;7.47;2.72;;;24.20;42.90;;;;;;5045272;28;20020;-75
2023/05/13 10:35:35;;;;;;;7.55;2.72;;;24.30;39.70;;;;;;5049057;28;20036;-75
2023/05/13 10:38:11;;;;;;;4.57;2.80;;;24.40;40.80;;;;;;5051609;28;20420;-75
2023/05/13 10:41:07;;;;;;;6.18;2.70;;;24.50;41.20;;;;;;5050584;28;20079;-75
2023/05/13 10:43:33;;;;;;;8.98;2.17;;;24.40;38.10;;;;;;5042111;28;20369;-75
2023/05/13 10:46:01;;;;;;;5.68;2.45;;;24.70;40.40;;;;;;5053432;28;20040;-75
2023/05/13 10:48:41;;;;;;;9.98;2.80;;;25.00;39.90;;;;;;5060741;28;20040;-76
2023/05/13 10:51:09;;;;;;;11.73;3.05;;;24.70;40.00;;;;;;5042260;28;20017;-74
2023/05/13 10:53:45;;;;;;;6.20;3.05;;;25.00;40.70;;;;;;5065908;28;20132;-74
2023/05/13 10:56:11;;;;;;;6.72;2.92;;;25.00;40.50;;;;;;5052181;28;20036;-74
2023/05/13 10:58:37;;;;;;;7.32;2.58;;;24.90;37.60;;;;;;5049822;28;20033;-73
2023/05/13 11:01:16;;;;;;;7.50;2.55;;;25.20;38.40;;;;;;5051881;28;20040;-74
2023/05/13 11:03:50;;;;;;;9.00;2.58;;;25.50;41.90;;;;;;5064254;28;20066;-74
2023/05/13 11:06:36;;;;;;;4.97;2.35;;;25.30;37.80;;;;;;5040508;28;20142;-74
2023/05/13 11:09:05;;;;;;;6.45;2.72;;;25.70;39.00;;;;;;5049123;28;20043;-74
2023/05/13 11:11:32;;;;;;;4.80;2.28;;;26.30;38.40;;;;;;5049604;28;20112;-74
2023/05/13 11:14:12;;;;;;;4.25;2.30;;;25.80;37.90;;;;;;5051712;28;20073;-74
2023/05/13 11:16:38;;;;;;;;;;;26.30;37.00;;;;;;5063802;28;20040;-74
2023/05/13 11:19:08;;;;;;;6.82;2.63;;;26.20;37.50;;;;;;5061072;28;20689;-73
2023/05/13 11:21:38;;;;;;;4.55;2.58;;;26.30;38.30;;;;;;5060784;28;20508;-74
2023/05/13 11:24:05;;;;;;;8.40;2.63;;;26.50;37.40;;;;;;5050291;28;20016;-74
2023/05/13 11:26:53;;;;;;;5.72;2.70;;;27.20;37.20;;;;;;5050619;28;20384;-74
2023/05/13 11:29:28;;;;;;;3.92;1.90;;;26.90;33.60;;;;;;5050633;28;20075;-74
2023/05/13 11:31:56;;;;;;;5.05;2.53;;;26.90;35.50;;;;;;5049445;28;20476;-73
2023/05/13 11:34:22;;;;;;;5.70;2.55;;;26.90;32.70;;;;;;5042530;28;20029;-74
2023/05/13 11:36:49;;;;;;;4.40;2.15;;;26.90;37.40;;;;;;5047349;28;20063;-73
2023/05/13 11:39:17;;;;;;;4.75;2.13;;;26.70;31.20;;;;;;5051043;28;20036;-74
2023/05/13 11:41:45;;;;;;;4.72;2.30;;;27.00;35.10;;;;;;5043763;28;20025;-74
2023/05/13 11:44:13;;;;;;;7.05;2.35;;;27.70;36.50;;;;;;5050327;28;20074;-74
2023/05/13 11:46:51;;;;;;;7.85;2.10;;;26.60;34.20;;;;;;5049551;28;20032;-73
2023/05/13 11:49:45;;;;;;;5.00;2.10;;;25.60;34.50;;;;;;5059289;28;20424;-74
2023/05/13 11:52:12;;;;;;;3.72;2.25;;;24.70;36.30;;;;;;5050990;28;20357;-73
2023/05/13 11:54:48;;;;;;;4.22;2.28;;;24.50;36.80;;;;;;5058953;28;20025;-73
2023/05/13 11:57:21;;;;;;;6.07;2.30;;;24.20;38.10;;;;;;5049100;28;20082;-75
2023/05/13 11:59:51;;;;;;;8.15;2.20;;;25.00;36.90;;;;;;5050689;28;20180;-75
2023/05/13 12:02:23;;;;;;;5.15;2.20;;;26.20;35.50;;;;;;5052247;28;20397;-75
2023/05/13 12:04:49;;;;;;;6.30;2.28;;;25.90;34.50;;;;;;5047156;28;20040;-76
2023/05/13 12:07:21;;;;;;;6.82;2.38;;;27.00;31.40;;;;;;5059588;28;20380;-76
2023/05/13 12:09:48;;;;;;;4.95;2.05;;;27.70;31.70;;;;;;5055510;28;20095;-76
2023/05/13 12:12:15;;;;;;;5.88;1.88;;;28.00;32.70;;;;;;5048985;28;20029;-73
2023/05/13 12:14:42;;;;;;;4.78;2.03;;;27.00;30.70;;;;;;5046559;28;20700;-74
2023/05/13 12:17:08;;;;;;;8.18;2.03;;;27.70;30.50;;;;;;5046551;28;20016;-73
2023/05/13 12:19:33;;;;;;;6.85;1.92;;;28.00;28.50;;;;;;5065392;28;20055;-74
2023/05/13 12:21:59;;;;;;;5.45;2.10;;;28.10;28.20;;;;;;5050136;28;20033;-74
2023/05/13 12:24:24;;;;;;;8.13;2.40;;;28.30;33.20;;;;;;5051012;28;20369;-74
2023/05/13 12:26:50;;;;;;;7.38;2.47;;;27.70;32.10;;;;;;5057363;28;20043;-74
2023/05/13 12:29:15;;;;;;;5.07;2.47;;;27.50;33.70;;;;;;5054769;28;20112;-74
2023/05/13 12:31:42;;;;;;;5.78;2.35;;;28.70;33.10;;;;;;5053959;28;20033;-74
2023/05/13 12:34:08;;;;;;;4.85;2.30;;;28.40;32.90;;;;;;5048882;28;20112;-74
2023/05/13 12:36:37;;;;;;;6.93;2.30;;;27.90;31.80;;;;;;5048868;28;20112;-74
2023/05/13 12:39:05;;;;;;;7.35;1.95;;;28.70;30.10;;;;;;5051384;28;20029;-74
2023/05/13 12:41:33;;;;;;;3.63;1.90;;;29.60;30.80;;;;;;5061918;28;20380;-74
2023/05/13 12:44:06;;;;;;;4.32;1.95;;;28.60;29.20;;;;;;5057788;28;20037;-74